Sydney, Canada
Current Conditions -  °F | °C
As of 6:00 AM on Sunday 25 Jan 2015 (Local Time) from CYQY Reporting Station
Light Rain Light Rain  
Wind Chill: 37°   Ceiling: 800
Heat Index: 46°   Visibility: 7mi
Dew Point: 46°   Wind: 29mph
Humidity: 100%   Direction: 190°S
Pressure: 28.54"   Gusts: 40mph
Location:  46.14°N, 60.2°W
Report Text: CYQY 251000Z 19025G35KT 7SM -RA OVC008 08/08 A2854 RMK NS8 SLP665 DENSITY ALT 1000FT
Loading
Personal Weather Stations






























Interactive Weather Map New forecast layout! Learn more

10-Day Weather Forecast

Advertisements
Track Severe Weather on mobile